Aviation Digital Data Service (ADDS)

Output produced by TAFs form (1307 UTC 06 May 2016)
found at http://www.aviationweather.gov/adds/tafs/
 
KPSF 061126Z 0612/0712 02004KT P6SM VCSH OVC040 
     FM061400 04006KT 6SM -RA OVC025 
     TEMPO 0614/0618 5SM -RA BR OVC015 
     FM061800 08005KT 5SM -RA BR OVC015 
     FM070800 09004KT P6SM OVC007